sensor_id;sensor_type;location;lat;lon;timestamp;temperature;humidity
41904;DHT22;27586;51.124;4.182;2024-02-04T00:02:20;11.30;99.90
41904;DHT22;27586;51.124;4.182;2024-02-04T00:04:48;11.20;99.90
41904;DHT22;27586;51.124;4.182;2024-02-04T00:07:13;11.10;99.90
41904;DHT22;27586;51.124;4.182;2024-02-04T00:09:39;11.10;99.90
41904;DHT22;27586;51.124;4.182;2024-02-04T00:12:05;11.30;99.90
41904;DHT22;27586;51.124;4.182;2024-02-04T00:14:31;11.30;99.90
41904;DHT22;27586;51.124;4.182;2024-02-04T00:16:57;11.30;99.90
41904;DHT22;27586;51.124;4.182;2024-02-04T00:19:23;11.20;99.90
41904;DHT22;27586;51.124;4.182;2024-02-04T00:21:48;11.30;99.90
41904;DHT22;27586;51.124;4.182;2024-02-04T00:24:14;11.30;99.90
41904;DHT22;27586;51.124;4.182;2024-02-04T00:26:40;11.30;99.90
41904;DHT22;27586;51.124;4.182;2024-02-04T00:29:05;11.30;99.90
41904;DHT22;27586;51.124;4.182;2024-02-04T00:31:31;11.40;99.90
41904;DHT22;27586;51.124;4.182;2024-02-04T00:33:56;11.40;99.90
41904;DHT22;27586;51.124;4.182;2024-02-04T00:36:22;11.30;99.90
41904;DHT22;27586;51.124;4.182;2024-02-04T00:38:48;11.30;99.90
41904;DHT22;27586;51.124;4.182;2024-02-04T00:41:13;11.50;99.90
41904;DHT22;27586;51.124;4.182;2024-02-04T00:43:39;11.40;99.90
41904;DHT22;27586;51.124;4.182;2024-02-04T00:46:05;11.30;99.90
41904;DHT22;27586;51.124;4.182;2024-02-04T00:48:30;11.40;99.90
41904;DHT22;27586;51.124;4.182;2024-02-04T00:50:56;11.30;99.90
41904;DHT22;27586;51.124;4.182;2024-02-04T00:53:22;11.40;99.90
41904;DHT22;27586;51.124;4.182;2024-02-04T00:55:48;11.40;99.90
41904;DHT22;27586;51.124;4.182;2024-02-04T00:58:14;11.30;99.90
41904;DHT22;27586;51.124;4.182;2024-02-04T01:00:39;11.40;99.90
41904;DHT22;27586;51.124;4.182;2024-02-04T01:03:05;11.30;99.90
41904;DHT22;27586;51.124;4.182;2024-02-04T01:05:30;11.40;99.90
41904;DHT22;27586;51.124;4.182;2024-02-04T01:07:56;11.40;99.90
41904;DHT22;27586;51.124;4.182;2024-02-04T01:10:22;11.30;99.90
41904;DHT22;27586;51.124;4.182;2024-02-04T01:12:47;11.30;99.90
41904;DHT22;27586;51.124;4.182;2024-02-04T01:15:13;11.30;99.90
41904;DHT22;27586;51.124;4.182;2024-02-04T01:17:39;11.30;99.90
41904;DHT22;27586;51.124;4.182;2024-02-04T01:20:04;11.20;99.90
41904;DHT22;27586;51.124;4.182;2024-02-04T01:22:31;11.20;99.90
41904;DHT22;27586;51.124;4.182;2024-02-04T01:24:56;11.20;99.90
41904;DHT22;27586;51.124;4.182;2024-02-04T01:27:22;11.20;99.90
41904;DHT22;27586;51.124;4.182;2024-02-04T01:29:48;11.20;99.90
41904;DHT22;27586;51.124;4.182;2024-02-04T01:32:13;11.20;99.90
41904;DHT22;27586;51.124;4.182;2024-02-04T01:34:39;11.20;99.90
41904;DHT22;27586;51.124;4.182;2024-02-04T01:37:05;11.30;99.90
41904;DHT22;27586;51.124;4.182;2024-02-04T01:39:30;11.40;99.90
41904;DHT22;27586;51.124;4.182;2024-02-04T01:41:56;11.40;99.90
41904;DHT22;27586;51.124;4.182;2024-02-04T01:44:22;11.50;99.90
41904;DHT22;27586;51.124;4.182;2024-02-04T01:46:49;11.40;99.90
41904;DHT22;27586;51.124;4.182;2024-02-04T01:49:14;11.50;99.90
41904;DHT22;27586;51.124;4.182;2024-02-04T01:51:41;11.50;99.90
41904;DHT22;27586;51.124;4.182;2024-02-04T01:54:07;11.50;99.90
41904;DHT22;27586;51.124;4.182;2024-02-04T01:56:33;11.50;99.90
41904;DHT22;27586;51.124;4.182;2024-02-04T01:58:59;11.50;99.90
41904;DHT22;27586;51.124;4.182;2024-02-04T02:01:26;11.50;99.90
41904;DHT22;27586;51.124;4.182;2024-02-04T02:03:52;11.50;99.90
41904;DHT22;27586;51.124;4.182;2024-02-04T02:06:18;11.50;99.90
41904;DHT22;27586;51.124;4.182;2024-02-04T02:08:44;11.40;99.90
41904;DHT22;27586;51.124;4.182;2024-02-04T02:11:16;11.40;99.90
41904;DHT22;27586;51.124;4.182;2024-02-04T02:13:44;11.40;99.90
41904;DHT22;27586;51.124;4.182;2024-02-04T02:16:19;11.30;99.90
41904;DHT22;27586;51.124;4.182;2024-02-04T02:18:52;11.30;99.90
41904;DHT22;27586;51.124;4.182;2024-02-04T02:24:25;11.40;99.90
41904;DHT22;27586;51.124;4.182;2024-02-04T02:26:51;11.30;99.90
41904;DHT22;27586;51.124;4.182;2024-02-04T02:29:17;11.30;99.90
41904;DHT22;27586;51.124;4.182;2024-02-04T02:31:43;11.30;99.90
41904;DHT22;27586;51.124;4.182;2024-02-04T02:34:09;11.30;99.90
41904;DHT22;27586;51.124;4.182;2024-02-04T02:36:57;11.30;99.90
41904;DHT22;27586;51.124;4.182;2024-02-04T02:39:29;11.20;99.90
41904;DHT22;27586;51.124;4.182;2024-02-04T02:41:59;11.20;99.90
41904;DHT22;27586;51.124;4.182;2024-02-04T02:44:27;11.20;99.90
41904;DHT22;27586;51.124;4.182;2024-02-04T02:46:56;11.30;99.90
41904;DHT22;27586;51.124;4.182;2024-02-04T02:49:22;11.30;99.90
41904;DHT22;27586;51.124;4.182;2024-02-04T02:51:48;11.20;99.90
41904;DHT22;27586;51.124;4.182;2024-02-04T02:54:13;11.20;99.90
41904;DHT22;27586;51.124;4.182;2024-02-04T02:56:39;11.20;99.90
41904;DHT22;27586;51.124;4.182;2024-02-04T02:59:05;11.20;99.90
41904;DHT22;27586;51.124;4.182;2024-02-04T03:01:30;11.10;99.90
41904;DHT22;27586;51.124;4.182;2024-02-04T03:03:56;11.10;99.90
41904;DHT22;27586;51.124;4.182;2024-02-04T03:06:22;11.30;99.90
41904;DHT22;27586;51.124;4.182;2024-02-04T03:08:47;11.30;99.90
41904;DHT22;27586;51.124;4.182;2024-02-04T03:11:13;11.20;99.90
41904;DHT22;27586;51.124;4.182;2024-02-04T03:13:39;11.20;99.90
41904;DHT22;27586;51.124;4.182;2024-02-04T03:16:10;11.20;99.90
41904;DHT22;27586;51.124;4.182;2024-02-04T03:18:42;11.30;99.90
41904;DHT22;27586;51.124;4.182;2024-02-04T03:21:17;11.30;99.90
41904;DHT22;27586;51.124;4.182;2024-02-04T03:23:45;11.20;99.90
41904;DHT22;27586;51.124;4.182;2024-02-04T03:26:11;11.30;99.90
41904;DHT22;27586;51.124;4.182;2024-02-04T03:28:37;11.30;99.90
41904;DHT22;27586;51.124;4.182;2024-02-04T03:31:03;11.20;99.90
41904;DHT22;27586;51.124;4.182;2024-02-04T03:33:29;11.20;99.90
41904;DHT22;27586;51.124;4.182;2024-02-04T03:35:54;11.20;99.90
41904;DHT22;27586;51.124;4.182;2024-02-04T03:38:20;11.20;99.90
41904;DHT22;27586;51.124;4.182;2024-02-04T03:40:47;11.10;99.90
41904;DHT22;27586;51.124;4.182;2024-02-04T03:43:14;11.10;99.90
41904;DHT22;27586;51.124;4.182;2024-02-04T03:45:39;11.20;99.90
41904;DHT22;27586;51.124;4.182;2024-02-04T03:48:05;11.20;99.90
41904;DHT22;27586;51.124;4.182;2024-02-04T03:50:31;11.10;99.90
41904;DHT22;27586;51.124;4.182;2024-02-04T03:52:57;11.20;99.90
41904;DHT22;27586;51.124;4.182;2024-02-04T03:55:22;11.20;99.90
41904;DHT22;27586;51.124;4.182;2024-02-04T03:57:48;11.30;99.90
41904;DHT22;27586;51.124;4.182;2024-02-04T04:00:14;11.20;99.90
41904;DHT22;27586;51.124;4.182;2024-02-04T04:02:40;11.20;99.90
41904;DHT22;27586;51.124;4.182;2024-02-04T04:05:09;11.30;99.90
41904;DHT22;27586;51.124;4.182;2024-02-04T04:07:35;11.30;99.90
41904;DHT22;27586;51.124;4.182;2024-02-04T04:10:01;11.30;99.90
41904;DHT22;27586;51.124;4.182;2024-02-04T04:12:26;11.20;99.90
41904;DHT22;27586;51.124;4.182;2024-02-04T04:14:52;11.20;99.90
41904;DHT22;27586;51.124;4.182;2024-02-04T04:17:18;11.20;99.90
41904;DHT22;27586;51.124;4.182;2024-02-04T04:19:44;11.20;99.90
41904;DHT22;27586;51.124;4.182;2024-02-04T04:22:09;11.10;99.90
41904;DHT22;27586;51.124;4.182;2024-02-04T04:24:35;11.10;99.90
41904;DHT22;27586;51.124;4.182;2024-02-04T04:27:01;11.10;99.90
41904;DHT22;27586;51.124;4.182;2024-02-04T04:29:26;11.10;99.90
41904;DHT22;27586;51.124;4.182;2024-02-04T04:31:52;11.10;99.90
41904;DHT22;27586;51.124;4.182;2024-02-04T04:34:18;11.10;99.90
41904;DHT22;27586;51.124;4.182;2024-02-04T04:36:45;11.10;99.90
41904;DHT22;27586;51.124;4.182;2024-02-04T04:39:11;11.10;99.90
41904;DHT22;27586;51.124;4.182;2024-02-04T04:41:36;11.00;99.90
41904;DHT22;27586;51.124;4.182;2024-02-04T04:44:02;11.10;99.90
41904;DHT22;27586;51.124;4.182;2024-02-04T04:46:28;11.00;99.90
41904;DHT22;27586;51.124;4.182;2024-02-04T04:48:54;10.90;99.90
41904;DHT22;27586;51.124;4.182;2024-02-04T04:51:23;11.00;99.90
41904;DHT22;27586;51.124;4.182;2024-02-04T04:53:49;11.00;99.90
41904;DHT22;27586;51.124;4.182;2024-02-04T04:56:15;10.90;99.90
41904;DHT22;27586;51.124;4.182;2024-02-04T04:58:40;11.00;99.90
41904;DHT22;27586;51.124;4.182;2024-02-04T05:01:06;11.00;99.90
41904;DHT22;27586;51.124;4.182;2024-02-04T05:03:32;11.00;99.90
41904;DHT22;27586;51.124;4.182;2024-02-04T05:05:58;11.00;99.90
41904;DHT22;27586;51.124;4.182;2024-02-04T05:08:23;11.00;99.90
41904;DHT22;27586;51.124;4.182;2024-02-04T05:10:49;11.00;99.90
41904;DHT22;27586;51.124;4.182;2024-02-04T05:13:14;11.00;99.90
41904;DHT22;27586;51.124;4.182;2024-02-04T05:15:40;10.90;99.90
41904;DHT22;27586;51.124;4.182;2024-02-04T05:18:06;11.00;99.90
41904;DHT22;27586;51.124;4.182;2024-02-04T05:20:31;11.10;99.90
41904;DHT22;27586;51.124;4.182;2024-02-04T05:22:57;11.10;99.90
41904;DHT22;27586;51.124;4.182;2024-02-04T05:25:23;11.20;99.90
41904;DHT22;27586;51.124;4.182;2024-02-04T05:27:50;11.10;99.90
41904;DHT22;27586;51.124;4.182;2024-02-04T05:30:16;11.10;99.90
41904;DHT22;27586;51.124;4.182;2024-02-04T05:32:42;11.20;99.90
41904;DHT22;27586;51.124;4.182;2024-02-04T05:35:09;11.10;99.90
41904;DHT22;27586;51.124;4.182;2024-02-04T05:37:35;11.00;99.90
41904;DHT22;27586;51.124;4.182;2024-02-04T05:40:02;11.10;99.90
41904;DHT22;27586;51.124;4.182;2024-02-04T05:42:28;11.10;99.90
41904;DHT22;27586;51.124;4.182;2024-02-04T05:44:54;11.10;99.90
41904;DHT22;27586;51.124;4.182;2024-02-04T05:47:19;11.00;99.90
41904;DHT22;27586;51.124;4.182;2024-02-04T05:49:45;11.00;99.90
41904;DHT22;27586;51.124;4.182;2024-02-04T05:52:11;10.90;99.90
41904;DHT22;27586;51.124;4.182;2024-02-04T05:54:38;10.90;99.90
41904;DHT22;27586;51.124;4.182;2024-02-04T05:57:06;11.00;99.90
41904;DHT22;27586;51.124;4.182;2024-02-04T05:59:33;11.10;99.90
41904;DHT22;27586;51.124;4.182;2024-02-04T06:01:59;11.10;99.90
41904;DHT22;27586;51.124;4.182;2024-02-04T06:04:24;11.30;99.90
41904;DHT22;27586;51.124;4.182;2024-02-04T06:06:50;11.30;99.90
41904;DHT22;27586;51.124;4.182;2024-02-04T06:09:16;11.30;99.90
41904;DHT22;27586;51.124;4.182;2024-02-04T06:11:45;11.30;99.90
41904;DHT22;27586;51.124;4.182;2024-02-04T06:14:11;11.20;99.90
41904;DHT22;27586;51.124;4.182;2024-02-04T06:16:37;11.30;99.90
41904;DHT22;27586;51.124;4.182;2024-02-04T06:19:02;11.10;99.90
41904;DHT22;27586;51.124;4.182;2024-02-04T06:21:28;11.20;99.90
41904;DHT22;27586;51.124;4.182;2024-02-04T06:23:53;11.20;99.90
41904;DHT22;27586;51.124;4.182;2024-02-04T06:26:19;11.20;99.90
41904;DHT22;27586;51.124;4.182;2024-02-04T06:28:45;11.20;99.90
41904;DHT22;27586;51.124;4.182;2024-02-04T06:31:12;11.20;99.90
41904;DHT22;27586;51.124;4.182;2024-02-04T06:33:38;11.10;99.90
41904;DHT22;27586;51.124;4.182;2024-02-04T06:36:09;11.10;99.90
41904;DHT22;27586;51.124;4.182;2024-02-04T06:38:34;11.10;99.90
41904;DHT22;27586;51.124;4.182;2024-02-04T06:41:00;11.00;99.90
41904;DHT22;27586;51.124;4.182;2024-02-04T06:43:26;11.00;99.90
41904;DHT22;27586;51.124;4.182;2024-02-04T06:45:51;11.10;99.90
41904;DHT22;27586;51.124;4.182;2024-02-04T06:48:19;11.20;99.90
41904;DHT22;27586;51.124;4.182;2024-02-04T06:50:45;11.10;99.90
41904;DHT22;27586;51.124;4.182;2024-02-04T06:53:13;11.00;99.90
41904;DHT22;27586;51.124;4.182;2024-02-04T06:55:39;10.90;99.90
41904;DHT22;27586;51.124;4.182;2024-02-04T06:58:05;11.10;99.90
41904;DHT22;27586;51.124;4.182;2024-02-04T07:00:30;11.00;99.90
41904;DHT22;27586;51.124;4.182;2024-02-04T07:02:56;11.00;99.90
41904;DHT22;27586;51.124;4.182;2024-02-04T07:05:22;11.00;99.90
41904;DHT22;27586;51.124;4.182;2024-02-04T07:07:51;11.00;99.90
41904;DHT22;27586;51.124;4.182;2024-02-04T07:10:17;11.00;99.90
41904;DHT22;27586;51.124;4.182;2024-02-04T07:12:44;11.00;99.90
41904;DHT22;27586;51.124;4.182;2024-02-04T07:15:10;11.00;99.90
41904;DHT22;27586;51.124;4.182;2024-02-04T07:17:35;10.90;99.90
41904;DHT22;27586;51.124;4.182;2024-02-04T07:20:02;10.90;99.90
41904;DHT22;27586;51.124;4.182;2024-02-04T07:22:28;11.00;99.90
41904;DHT22;27586;51.124;4.182;2024-02-04T07:24:53;11.00;99.90
41904;DHT22;27586;51.124;4.182;2024-02-04T07:27:19;11.00;99.90
41904;DHT22;27586;51.124;4.182;2024-02-04T07:29:45;11.00;99.90
41904;DHT22;27586;51.124;4.182;2024-02-04T07:32:12;11.00;99.90
41904;DHT22;27586;51.124;4.182;2024-02-04T07:34:38;11.10;99.90
41904;DHT22;27586;51.124;4.182;2024-02-04T07:37:04;11.10;99.90
41904;DHT22;27586;51.124;4.182;2024-02-04T07:39:29;11.10;99.90
41904;DHT22;27586;51.124;4.182;2024-02-04T07:41:56;11.10;99.90
41904;DHT22;27586;51.124;4.182;2024-02-04T07:44:28;11.10;99.90
41904;DHT22;27586;51.124;4.182;2024-02-04T07:46:54;11.20;99.90
41904;DHT22;27586;51.124;4.182;2024-02-04T07:49:20;11.20;99.90
41904;DHT22;27586;51.124;4.182;2024-02-04T07:51:45;11.20;99.90
41904;DHT22;27586;51.124;4.182;2024-02-04T07:54:11;11.20;99.90
41904;DHT22;27586;51.124;4.182;2024-02-04T07:56:37;11.20;99.90
41904;DHT22;27586;51.124;4.182;2024-02-04T07:59:02;11.20;99.90
41904;DHT22;27586;51.124;4.182;2024-02-04T08:01:29;11.20;99.90
41904;DHT22;27586;51.124;4.182;2024-02-04T08:03:55;11.10;99.90
41904;DHT22;27586;51.124;4.182;2024-02-04T08:06:20;11.00;99.90
41904;DHT22;27586;51.124;4.182;2024-02-04T08:08:46;11.10;99.90
41904;DHT22;27586;51.124;4.182;2024-02-04T08:11:19;11.20;99.90
41904;DHT22;27586;51.124;4.182;2024-02-04T08:13:45;11.20;99.90
41904;DHT22;27586;51.124;4.182;2024-02-04T08:16:12;11.30;99.90
41904;DHT22;27586;51.124;4.182;2024-02-04T08:18:37;11.30;99.90
41904;DHT22;27586;51.124;4.182;2024-02-04T08:21:03;11.30;99.90
41904;DHT22;27586;51.124;4.182;2024-02-04T08:23:29;11.30;99.90
41904;DHT22;27586;51.124;4.182;2024-02-04T08:25:55;11.30;99.90
41904;DHT22;27586;51.124;4.182;2024-02-04T08:28:22;11.30;99.90
41904;DHT22;27586;51.124;4.182;2024-02-04T08:30:49;11.40;99.90
41904;DHT22;27586;51.124;4.182;2024-02-04T08:33:14;11.30;99.90
41904;DHT22;27586;51.124;4.182;2024-02-04T08:35:40;11.50;99.90
41904;DHT22;27586;51.124;4.182;2024-02-04T08:38:06;11.40;99.90
41904;DHT22;27586;51.124;4.182;2024-02-04T08:40:32;11.50;99.90
41904;DHT22;27586;51.124;4.182;2024-02-04T08:42:57;11.50;99.90
41904;DHT22;27586;51.124;4.182;2024-02-04T08:45:23;11.40;99.90
41904;DHT22;27586;51.124;4.182;2024-02-04T08:47:48;11.50;99.90
41904;DHT22;27586;51.124;4.182;2024-02-04T08:50:14;11.50;99.90
41904;DHT22;27586;51.124;4.182;2024-02-04T08:52:41;11.60;99.90
41904;DHT22;27586;51.124;4.182;2024-02-04T08:55:07;11.50;99.90
41904;DHT22;27586;51.124;4.182;2024-02-04T08:57:32;11.50;99.90
41904;DHT22;27586;51.124;4.182;2024-02-04T08:59:58;11.50;99.90
41904;DHT22;27586;51.124;4.182;2024-02-04T09:02:24;11.60;99.90
41904;DHT22;27586;51.124;4.182;2024-02-04T09:04:50;11.50;99.90
41904;DHT22;27586;51.124;4.182;2024-02-04T09:07:15;11.60;99.90
41904;DHT22;27586;51.124;4.182;2024-02-04T09:09:41;11.50;99.90
41904;DHT22;27586;51.124;4.182;2024-02-04T09:12:09;11.50;99.90
41904;DHT22;27586;51.124;4.182;2024-02-04T09:14:35;11.50;99.90
41904;DHT22;27586;51.124;4.182;2024-02-04T09:17:03;11.50;99.90
41904;DHT22;27586;51.124;4.182;2024-02-04T09:19:29;11.70;99.90
41904;DHT22;27586;51.124;4.182;2024-02-04T09:21:56;11.60;99.90
41904;DHT22;27586;51.124;4.182;2024-02-04T09:24:22;11.60;99.90
41904;DHT22;27586;51.124;4.182;2024-02-04T09:26:48;11.60;99.90
41904;DHT22;27586;51.124;4.182;2024-02-04T09:29:14;11.70;99.90
41904;DHT22;27586;51.124;4.182;2024-02-04T09:31:40;11.70;99.90
41904;DHT22;27586;51.124;4.182;2024-02-04T09:34:05;11.70;99.90
41904;DHT22;27586;51.124;4.182;2024-02-04T09:36:31;11.70;99.90
41904;DHT22;27586;51.124;4.182;2024-02-04T09:38:57;11.60;99.90
41904;DHT22;27586;51.124;4.182;2024-02-04T09:41:22;11.60;99.90
41904;DHT22;27586;51.124;4.182;2024-02-04T09:43:50;11.70;99.90
41904;DHT22;27586;51.124;4.182;2024-02-04T09:46:17;11.80;99.90
41904;DHT22;27586;51.124;4.182;2024-02-04T09:48:44;11.80;99.90
41904;DHT22;27586;51.124;4.182;2024-02-04T09:51:10;11.80;99.90
41904;DHT22;27586;51.124;4.182;2024-02-04T09:53:36;11.80;99.90
41904;DHT22;27586;51.124;4.182;2024-02-04T09:56:06;11.80;99.90
41904;DHT22;27586;51.124;4.182;2024-02-04T09:58:32;11.70;99.90
41904;DHT22;27586;51.124;4.182;2024-02-04T10:01:00;11.90;99.90
41904;DHT22;27586;51.124;4.182;2024-02-04T10:03:26;11.90;99.90
41904;DHT22;27586;51.124;4.182;2024-02-04T10:05:51;12.10;99.90
41904;DHT22;27586;51.124;4.182;2024-02-04T10:08:17;12.20;99.90
41904;DHT22;27586;51.124;4.182;2024-02-04T10:10:43;12.30;99.90
41904;DHT22;27586;51.124;4.182;2024-02-04T10:13:09;12.30;99.90
41904;DHT22;27586;51.124;4.182;2024-02-04T10:15:35;12.30;99.90
41904;DHT22;27586;51.124;4.182;2024-02-04T10:18:04;12.30;99.90
41904;DHT22;27586;51.124;4.182;2024-02-04T10:20:34;12.40;99.90
41904;DHT22;27586;51.124;4.182;2024-02-04T10:22:59;12.40;99.90
41904;DHT22;27586;51.124;4.182;2024-02-04T10:25:26;12.40;99.90
41904;DHT22;27586;51.124;4.182;2024-02-04T10:27:53;12.40;99.90
41904;DHT22;27586;51.124;4.182;2024-02-04T10:30:20;12.40;99.90
41904;DHT22;27586;51.124;4.182;2024-02-04T10:32:52;12.50;99.90
41904;DHT22;27586;51.124;4.182;2024-02-04T10:35:17;12.70;99.90
41904;DHT22;27586;51.124;4.182;2024-02-04T10:37:45;12.60;99.90
41904;DHT22;27586;51.124;4.182;2024-02-04T10:40:11;12.60;99.90
41904;DHT22;27586;51.124;4.182;2024-02-04T10:42:37;12.50;99.90
41904;DHT22;27586;51.124;4.182;2024-02-04T10:45:08;12.60;99.90
41904;DHT22;27586;51.124;4.182;2024-02-04T10:47:37;12.50;99.90
41904;DHT22;27586;51.124;4.182;2024-02-04T10:50:04;12.50;99.90
41904;DHT22;27586;51.124;4.182;2024-02-04T10:52:36;12.60;99.90
41904;DHT22;27586;51.124;4.182;2024-02-04T10:55:08;12.60;99.90
41904;DHT22;27586;51.124;4.182;2024-02-04T10:57:35;12.60;99.90
41904;DHT22;27586;51.124;4.182;2024-02-04T11:00:02;12.70;99.90
41904;DHT22;27586;51.124;4.182;2024-02-04T11:02:34;12.80;99.90
41904;DHT22;27586;51.124;4.182;2024-02-04T11:05:00;12.70;99.90
41904;DHT22;27586;51.124;4.182;2024-02-04T11:07:31;12.80;99.90
41904;DHT22;27586;51.124;4.182;2024-02-04T11:09:57;12.90;99.90
41904;DHT22;27586;51.124;4.182;2024-02-04T11:12:24;12.90;99.90
41904;DHT22;27586;51.124;4.182;2024-02-04T11:14:54;12.90;99.90
41904;DHT22;27586;51.124;4.182;2024-02-04T11:20:20;13.10;99.90
41904;DHT22;27586;51.124;4.182;2024-02-04T11:25:56;13.00;99.90
41904;DHT22;27586;51.124;4.182;2024-02-04T11:28:22;13.10;99.90
41904;DHT22;27586;51.124;4.182;2024-02-04T11:30:49;13.20;99.90
41904;DHT22;27586;51.124;4.182;2024-02-04T11:33:20;13.20;99.90
41904;DHT22;27586;51.124;4.182;2024-02-04T11:35:46;13.20;99.90
41904;DHT22;27586;51.124;4.182;2024-02-04T11:38:12;13.30;99.90
41904;DHT22;27586;51.124;4.182;2024-02-04T11:40:39;13.20;99.90
41904;DHT22;27586;51.124;4.182;2024-02-04T11:43:09;13.10;99.90
41904;DHT22;27586;51.124;4.182;2024-02-04T11:45:42;13.10;99.90
41904;DHT22;27586;51.124;4.182;2024-02-04T11:48:09;13.00;99.90
41904;DHT22;27586;51.124;4.182;2024-02-04T11:50:35;13.00;99.90
41904;DHT22;27586;51.124;4.182;2024-02-04T11:53:09;13.10;99.90
41904;DHT22;27586;51.124;4.182;2024-02-04T11:55:36;13.00;99.90
41904;DHT22;27586;51.124;4.182;2024-02-04T11:58:05;13.10;99.90
41904;DHT22;27586;51.124;4.182;2024-02-04T12:00:35;13.20;99.90
41904;DHT22;27586;51.124;4.182;2024-02-04T12:03:05;13.10;99.90
41904;DHT22;27586;51.124;4.182;2024-02-04T12:05:32;13.10;99.90
41904;DHT22;27586;51.124;4.182;2024-02-04T12:08:02;13.30;99.90
41904;DHT22;27586;51.124;4.182;2024-02-04T12:10:29;13.40;99.90
41904;DHT22;27586;51.124;4.182;2024-02-04T12:12:55;13.20;99.90
41904;DHT22;27586;51.124;4.182;2024-02-04T12:15:22;13.20;99.90
41904;DHT22;27586;51.124;4.182;2024-02-04T12:17:47;13.30;99.90
41904;DHT22;27586;51.124;4.182;2024-02-04T12:20:13;13.20;99.90
41904;DHT22;27586;51.124;4.182;2024-02-04T12:22:40;13.10;99.90
41904;DHT22;27586;51.124;4.182;2024-02-04T12:25:06;13.10;99.90
41904;DHT22;27586;51.124;4.182;2024-02-04T12:27:32;13.20;99.90
41904;DHT22;27586;51.124;4.182;2024-02-04T12:29:58;13.00;99.90
41904;DHT22;27586;51.124;4.182;2024-02-04T12:32:24;12.90;99.90
41904;DHT22;27586;51.124;4.182;2024-02-04T12:34:50;13.10;99.90
41904;DHT22;27586;51.124;4.182;2024-02-04T12:37:20;13.10;99.90
41904;DHT22;27586;51.124;4.182;2024-02-04T12:39:45;13.20;99.90
41904;DHT22;27586;51.124;4.182;2024-02-04T12:42:15;13.20;99.90
41904;DHT22;27586;51.124;4.182;2024-02-04T12:44:47;13.10;99.90
41904;DHT22;27586;51.124;4.182;2024-02-04T12:47:13;13.10;99.90
41904;DHT22;27586;51.124;4.182;2024-02-04T12:49:41;13.20;99.90
41904;DHT22;27586;51.124;4.182;2024-02-04T12:52:07;13.10;99.90
41904;DHT22;27586;51.124;4.182;2024-02-04T12:54:45;13.00;99.90
41904;DHT22;27586;51.124;4.182;2024-02-04T12:57:22;12.90;99.90
41904;DHT22;27586;51.124;4.182;2024-02-04T12:59:48;13.00;99.90
41904;DHT22;27586;51.124;4.182;2024-02-04T13:02:14;12.90;99.90
41904;DHT22;27586;51.124;4.182;2024-02-04T13:04:41;12.80;99.90
41904;DHT22;27586;51.124;4.182;2024-02-04T13:07:14;13.00;99.90
41904;DHT22;27586;51.124;4.182;2024-02-04T13:09:40;12.90;99.90
41904;DHT22;27586;51.124;4.182;2024-02-04T13:12:07;13.00;99.90
41904;DHT22;27586;51.124;4.182;2024-02-04T13:14:34;12.80;99.90
41904;DHT22;27586;51.124;4.182;2024-02-04T13:17:00;12.80;99.90
41904;DHT22;27586;51.124;4.182;2024-02-04T13:19:32;12.70;99.90
41904;DHT22;27586;51.124;4.182;2024-02-04T13:21:58;12.80;99.90
41904;DHT22;27586;51.124;4.182;2024-02-04T13:24:24;12.70;99.90
41904;DHT22;27586;51.124;4.182;2024-02-04T13:26:50;12.60;99.90
41904;DHT22;27586;51.124;4.182;2024-02-04T13:29:16;12.60;99.90
41904;DHT22;27586;51.124;4.182;2024-02-04T13:31:42;12.50;99.90
41904;DHT22;27586;51.124;4.182;2024-02-04T13:34:08;12.60;99.90
41904;DHT22;27586;51.124;4.182;2024-02-04T13:36:34;12.60;99.90
41904;DHT22;27586;51.124;4.182;2024-02-04T13:38:59;12.60;99.90
41904;DHT22;27586;51.124;4.182;2024-02-04T13:41:25;12.60;99.90
41904;DHT22;27586;51.124;4.182;2024-02-04T13:43:51;12.60;99.90
41904;DHT22;27586;51.124;4.182;2024-02-04T13:46:17;12.70;99.90
41904;DHT22;27586;51.124;4.182;2024-02-04T13:48:43;12.60;99.90
41904;DHT22;27586;51.124;4.182;2024-02-04T13:51:08;12.50;99.90
41904;DHT22;27586;51.124;4.182;2024-02-04T13:53:34;12.60;99.90
41904;DHT22;27586;51.124;4.182;2024-02-04T13:56:01;12.50;99.90
41904;DHT22;27586;51.124;4.182;2024-02-04T13:58:27;12.60;99.90
41904;DHT22;27586;51.124;4.182;2024-02-04T14:00:52;12.60;99.90
41904;DHT22;27586;51.124;4.182;2024-02-04T14:03:18;12.70;99.90
41904;DHT22;27586;51.124;4.182;2024-02-04T14:05:44;12.60;99.90
41904;DHT22;27586;51.124;4.182;2024-02-04T14:08:10;12.70;99.90
41904;DHT22;27586;51.124;4.182;2024-02-04T14:10:36;12.70;99.90
41904;DHT22;27586;51.124;4.182;2024-02-04T14:13:02;12.70;99.90
41904;DHT22;27586;51.124;4.182;2024-02-04T14:15:28;12.60;99.90
41904;DHT22;27586;51.124;4.182;2024-02-04T14:17:55;12.70;99.90
41904;DHT22;27586;51.124;4.182;2024-02-04T14:20:23;12.80;99.90
41904;DHT22;27586;51.124;4.182;2024-02-04T14:22:49;12.80;99.90
41904;DHT22;27586;51.124;4.182;2024-02-04T14:25:16;12.80;99.90
41904;DHT22;27586;51.124;4.182;2024-02-04T14:27:42;12.80;99.90
41904;DHT22;27586;51.124;4.182;2024-02-04T14:30:08;13.00;99.90
41904;DHT22;27586;51.124;4.182;2024-02-04T14:32:34;12.90;99.90
41904;DHT22;27586;51.124;4.182;2024-02-04T14:35:00;12.90;99.90
41904;DHT22;27586;51.124;4.182;2024-02-04T14:37:26;12.70;99.90
41904;DHT22;27586;51.124;4.182;2024-02-04T14:39:51;12.80;99.90
41904;DHT22;27586;51.124;4.182;2024-02-04T14:42:18;12.90;99.90
41904;DHT22;27586;51.124;4.182;2024-02-04T14:44:45;12.80;99.90
41904;DHT22;27586;51.124;4.182;2024-02-04T14:47:10;12.70;99.90
41904;DHT22;27586;51.124;4.182;2024-02-04T14:49:36;12.80;99.90
41904;DHT22;27586;51.124;4.182;2024-02-04T14:52:03;12.70;99.90
41904;DHT22;27586;51.124;4.182;2024-02-04T14:54:29;12.70;99.90
41904;DHT22;27586;51.124;4.182;2024-02-04T14:56:54;12.60;99.90
41904;DHT22;27586;51.124;4.182;2024-02-04T14:59:20;12.60;99.90
41904;DHT22;27586;51.124;4.182;2024-02-04T15:01:46;12.70;99.90
41904;DHT22;27586;51.124;4.182;2024-02-04T15:04:12;12.70;99.90
41904;DHT22;27586;51.124;4.182;2024-02-04T15:06:39;12.70;99.90
41904;DHT22;27586;51.124;4.182;2024-02-04T15:09:05;12.70;99.90
41904;DHT22;27586;51.124;4.182;2024-02-04T15:11:31;12.70;99.90
41904;DHT22;27586;51.124;4.182;2024-02-04T15:13:58;12.70;99.90
41904;DHT22;27586;51.124;4.182;2024-02-04T15:16:24;12.70;99.90
41904;DHT22;27586;51.124;4.182;2024-02-04T15:18:50;12.70;99.90
41904;DHT22;27586;51.124;4.182;2024-02-04T15:21:16;12.60;99.90
41904;DHT22;27586;51.124;4.182;2024-02-04T15:23:41;12.50;99.90
41904;DHT22;27586;51.124;4.182;2024-02-04T15:26:10;12.50;99.90
41904;DHT22;27586;51.124;4.182;2024-02-04T15:28:37;12.50;99.90
41904;DHT22;27586;51.124;4.182;2024-02-04T15:31:04;12.60;99.90
41904;DHT22;27586;51.124;4.182;2024-02-04T15:33:30;12.60;99.90
41904;DHT22;27586;51.124;4.182;2024-02-04T15:35:55;12.60;99.90